Time;durP1;ratioP1;P1;durP2;ratioP2;P2;SDS_P1;SDS_P2;PMS_P1;PMS_P2;Temp;Humidity;BMP_temperature;BMP_pressure;BME280_temperature;BME280_humidity;BME280_pressure;Samples;Min_cycle;Max_cycle;Signal;HPM_P1;HPM_P2
2024/02/16 00:01:08;;;;;;;23.80;8.00;;;;;;;6.37;66.71;101611.41;105429;1257;62708;-60
2024/02/16 00:03:36;;;;;;;22.60;9.10;;;;;;;6.38;66.79;101609.08;105386;1255;60515;-60
2024/02/16 00:06:04;;;;;;;19.60;8.60;;;;;;;6.38;66.77;101609.61;105710;1251;60456;-60
2024/02/16 00:08:34;;;;;;;15.70;7.70;;;;;;;6.33;66.90;101611.71;105696;1257;65023;-61
2024/02/16 00:11:02;;;;;;;18.20;8.70;;;;;;;6.33;66.89;101609.48;105717;1257;61428;-59
2024/02/16 00:13:32;;;;;;;18.90;7.30;;;;;;;6.36;66.71;101612.33;105512;1257;63784;-60
2024/02/16 00:16:00;;;;;;;18.50;7.90;;;;;;;6.38;66.63;101610.16;105391;1257;60548;-60
2024/02/16 00:18:27;;;;;;;13.10;7.10;;;;;;;6.37;66.78;101606.17;105329;1259;60496;-59
2024/02/16 00:20:55;;;;;;;21.70;9.80;;;;;;;6.33;66.93;101604.04;105417;1251;64974;-61
2024/02/16 00:23:25;;;;;;;18.70;8.90;;;;;;;6.28;66.93;101604.63;106048;1256;60913;-60
2024/02/16 00:25:53;;;;;;;17.70;6.70;;;;;;;6.18;67.14;101603.67;105533;1254;63822;-61
2024/02/16 00:28:20;;;;;;;16.30;7.50;;;;;;;6.10;67.25;101604.52;106993;1254;60430;-62
2024/02/16 00:30:49;;;;;;;19.10;8.90;;;;;;;6.10;67.23;101609.02;105454;1255;60475;-60
2024/02/16 00:33:18;;;;;;;15.80;7.20;;;;;;;6.17;67.20;101613.46;105123;1251;63807;-60
2024/02/16 00:35:49;;;;;;;12.70;5.00;;;;;;;6.24;67.11;101615.96;106201;1257;60500;-61
2024/02/16 00:38:17;;;;;;;15.00;7.90;;;;;;;6.27;67.27;101612.67;105187;1257;62512;-59
2024/02/16 00:40:45;;;;;;;15.70;9.30;;;;;;;6.30;67.38;101610.13;105441;1251;60401;-59
2024/02/16 00:43:13;;;;;;;16.20;7.00;;;;;;;6.30;67.58;101609.06;105369;1257;60508;-58
2024/02/16 00:45:44;;;;;;;18.20;7.50;;;;;;;6.29;67.51;101609.83;105453;1256;65356;-60
2024/02/16 00:48:12;;;;;;;16.70;7.70;;;;;;;6.27;67.69;101609.88;108841;1257;60151;-61
2024/02/16 00:50:42;;;;;;;15.70;7.10;;;;;;;6.29;67.54;101610.69;105629;1257;62534;-59
2024/02/16 00:53:11;;;;;;;14.60;6.20;;;;;;;6.34;67.47;101612.04;105532;1257;60834;-60
2024/02/16 00:55:41;;;;;;;17.50;6.20;;;;;;;6.40;67.58;101611.60;105484;1251;59258;-60
2024/02/16 00:58:09;;;;;;;18.40;8.20;;;;;;;6.45;67.49;101607.89;108070;1256;63664;-60
2024/02/16 01:00:37;;;;;;;13.40;5.30;;;;;;;6.45;67.41;101608.61;105412;1257;61448;-60
2024/02/16 01:03:05;;;;;;;16.90;7.50;;;;;;;6.41;67.38;101606.50;105178;1251;62588;-59
2024/02/16 01:05:33;;;;;;;13.90;6.70;;;;;;;6.36;67.33;101601.83;105328;1257;60446;-59
2024/02/16 01:08:01;;;;;;;17.90;6.90;;;;;;;6.37;67.29;101607.20;105833;1255;60424;-60
2024/02/16 01:10:29;;;;;;;16.40;7.10;;;;;;;6.41;67.20;101607.37;106558;1251;64879;-59
2024/02/16 01:12:57;;;;;;;14.50;6.90;;;;;;;6.44;67.04;101606.88;105489;1257;60496;-61
2024/02/16 01:15:25;;;;;;;14.80;5.70;;;;;;;6.43;67.20;101605.03;105384;1254;63728;-61
2024/02/16 01:17:52;;;;;;;15.10;6.70;;;;;;;6.41;67.24;101606.17;106069;1254;60558;-60
2024/02/16 01:20:20;;;;;;;13.60;5.80;;;;;;;6.38;67.21;101607.33;105659;1257;60345;-59
2024/02/16 01:22:48;;;;;;;14.30;6.20;;;;;;;6.35;67.37;101607.13;105491;1256;65202;-59
2024/02/16 01:25:16;;;;;;;14.40;7.00;;;;;;;6.36;67.29;101608.30;105537;1257;61301;-60
2024/02/16 01:27:43;;;;;;;11.80;5.70;;;;;;;6.41;67.23;101611.89;105317;1251;62566;-60
2024/02/16 01:30:12;;;;;;;12.00;5.60;;;;;;;6.42;67.13;101610.29;105498;1254;60508;-60
2024/02/16 01:32:40;;;;;;;13.40;5.20;;;;;;;6.42;67.26;101605.44;105589;1254;60730;-60
2024/02/16 01:35:08;;;;;;;17.20;6.00;;;;;;;6.40;67.37;101601.51;105464;1251;63619;-60
2024/02/16 01:37:36;;;;;;;12.60;6.30;;;;;;;6.35;67.36;101600.84;105717;1251;63379;-61
2024/02/16 01:40:04;;;;;;;15.70;6.10;;;;;;;6.28;67.46;101601.48;105760;1257;63713;-60
2024/02/16 01:42:33;;;;;;;13.70;5.60;;;;;;;6.24;67.36;101599.56;105978;1256;60534;-59
2024/02/16 01:45:01;;;;;;;11.50;5.60;;;;;;;6.26;67.27;101601.23;105486;1257;60303;-60
2024/02/16 01:47:29;;;;;;;12.80;5.30;;;;;;;6.29;67.22;101602.67;106634;1254;64969;-60
2024/02/16 01:49:57;;;;;;;18.20;6.20;;;;;;;6.30;67.37;101601.23;105976;1251;61793;-60
2024/02/16 01:52:24;;;;;;;12.00;5.80;;;;;;;6.29;67.39;101601.64;105388;1254;63748;-60
2024/02/16 01:54:52;;;;;;;13.70;5.20;;;;;;;6.24;67.47;101600.42;105181;1254;61743;-61
2024/02/16 01:57:20;;;;;;;12.90;4.70;;;;;;;6.23;67.48;101601.70;105258;1256;60363;-62
2024/02/16 01:59:47;;;;;;;16.50;5.90;;;;;;;6.25;67.31;101600.23;105433;1251;64009;-59
2024/02/16 02:02:15;;;;;;;15.20;5.50;;;;;;;6.26;67.27;101603.15;105210;1251;61405;-61
2024/02/16 02:04:43;;;;;;;12.30;5.20;;;;;;;6.27;67.52;101604.14;105423;1254;63891;-62
2024/02/16 02:07:14;;;;;;;12.60;5.00;;;;;;;6.26;67.56;101605.59;105432;1254;60448;-60
2024/02/16 02:09:43;;;;;;;18.90;7.10;;;;;;;6.25;67.79;101606.11;105746;1251;60395;-60
2024/02/16 02:12:10;;;;;;;17.30;5.50;;;;;;;6.25;67.91;101610.17;105473;1253;63624;-60
2024/02/16 02:14:38;;;;;;;14.70;6.80;;;;;;;6.27;67.89;101609.73;105464;1256;60535;-59
2024/02/16 02:17:06;;;;;;;13.70;6.30;;;;;;;6.32;67.74;101611.09;105400;1254;63838;-64
2024/02/16 02:19:34;;;;;;;12.50;5.60;;;;;;;6.38;67.68;101611.69;105443;1251;60468;-59
2024/02/16 02:22:02;;;;;;;12.30;4.60;;;;;;;6.41;67.66;101610.87;105877;1254;60443;-59
2024/02/16 02:24:30;;;;;;;13.70;6.90;;;;;;;6.43;67.82;101613.38;105376;1254;64962;-61
2024/02/16 02:26:58;;;;;;;11.80;6.00;;;;;;;6.45;68.12;101614.17;108334;1251;61355;-64
2024/02/16 02:29:25;;;;;;;12.00;6.30;;;;;;;6.45;68.13;101617.84;108372;1253;62550;-63
2024/02/16 02:31:53;;;;;;;13.00;5.40;;;;;;;6.41;67.92;101619.94;105505;1257;60552;-63
2024/02/16 02:34:21;;;;;;;11.50;5.40;;;;;;;6.36;67.97;101623.80;106692;1251;60548;-63
2024/02/16 02:36:49;;;;;;;12.10;3.60;;;;;;;6.38;67.71;101623.02;106096;1254;63727;-61
2024/02/16 02:39:16;;;;;;;8.40;3.10;;;;;;;6.43;67.72;101624.20;105376;1257;61354;-63
2024/02/16 02:41:44;;;;;;;7.90;3.00;;;;;;;6.49;67.62;101620.64;106206;1251;62466;-61
2024/02/16 02:44:12;;;;;;;14.20;4.10;;;;;;;6.54;67.56;101623.72;105523;1257;60552;-61
2024/02/16 02:46:40;;;;;;;10.20;3.20;;;;;;;6.57;67.48;101625.17;105513;1251;60533;-62
2024/02/16 02:49:08;;;;;;;14.80;4.30;;;;;;;6.59;67.43;101627.02;105435;1251;65326;-63
2024/02/16 02:51:36;;;;;;;12.40;4.60;;;;;;;6.58;67.37;101631.95;106598;1253;61366;-64
2024/02/16 02:54:04;;;;;;;10.00;4.00;;;;;;;6.50;67.51;101626.85;105365;1253;62444;-61
2024/02/16 02:56:32;;;;;;;11.70;5.10;;;;;;;6.41;67.45;101624.12;105949;1253;60555;-64
2024/02/16 02:58:59;;;;;;;10.40;4.90;;;;;;;6.32;67.54;101627.63;105369;1251;60528;-66
2024/02/16 03:01:27;;;;;;;11.10;4.50;;;;;;;6.24;67.71;101629.72;105452;1257;64918;-63
2024/02/16 03:03:55;;;;;;;13.00;5.30;;;;;;;6.17;67.69;101630.01;106160;1257;61368;-61
2024/02/16 03:06:23;;;;;;;13.90;5.10;;;;;;;6.18;67.76;101628.74;106074;1257;62426;-62
2024/02/16 03:08:51;;;;;;;14.20;4.90;;;;;;;6.23;67.66;101629.73;106144;1256;60607;-62
2024/02/16 03:11:19;;;;;;;8.80;3.40;;;;;;;6.28;67.47;101633.36;105444;1254;60372;-59
2024/02/16 03:13:47;;;;;;;10.50;4.30;;;;;;;6.34;67.38;101628.95;105602;1253;63626;-68
2024/02/16 03:16:15;;;;;;;9.90;4.40;;;;;;;6.39;67.43;101636.93;105468;1254;60552;-62
2024/02/16 03:18:43;;;;;;;11.50;5.80;;;;;;;6.41;67.57;101642.59;105398;1251;63845;-65
2024/02/16 03:21:17;;;;;;;9.50;3.90;;;;;;;6.38;67.79;101641.84;105570;1252;60584;-71
2024/02/16 03:23:45;;;;;;;14.20;5.50;;;;;;;6.35;67.85;101643.70;105431;1251;60621;-65
2024/02/16 03:26:14;;;;;;;13.10;5.20;;;;;;;6.34;67.95;101645.16;105725;1251;63928;-60
2024/02/16 03:28:47;;;;;;;10.90;5.00;;;;;;;6.32;68.02;101644.88;105368;1254;60405;-60
2024/02/16 03:31:18;;;;;;;13.10;6.00;;;;;;;6.30;68.04;101649.85;105601;1251;63742;-62
2024/02/16 03:33:47;;;;;;;10.40;3.70;;;;;;;6.33;67.93;101647.27;105458;1251;60524;-61
2024/02/16 03:36:15;;;;;;;9.60;3.60;;;;;;;6.42;67.88;101648.45;105645;1251;60473;-61
2024/02/16 03:38:46;;;;;;;13.80;5.60;;;;;;;6.51;67.78;101647.39;105545;1251;64926;-64
2024/02/16 03:41:15;;;;;;;9.40;3.70;;;;;;;6.60;67.85;101652.23;105540;1257;61496;-59
2024/02/16 03:43:43;;;;;;;9.00;4.30;;;;;;;6.69;67.85;101648.17;106375;1257;62467;-65
2024/02/16 03:46:10;;;;;;;10.50;4.40;;;;;;;6.76;67.86;101646.49;105483;1251;60442;-63
2024/02/16 03:48:39;;;;;;;20.00;11.20;;;;;;;6.80;67.93;101646.13;105230;1251;60366;-59
2024/02/16 03:51:07;;;;;;;9.60;4.40;;;;;;;6.86;68.05;101645.17;105717;1251;63637;-63
2024/02/16 03:53:35;;;;;;;12.60;5.10;;;;;;;6.89;67.83;101647.83;105400;1256;60374;-68
2024/02/16 03:56:03;;;;;;;8.90;4.20;;;;;;;6.89;67.72;101644.69;105841;1254;63747;-65
2024/02/16 03:58:31;;;;;;;11.20;4.70;;;;;;;6.87;67.52;101641.84;105275;1251;60447;-64
2024/02/16 04:00:58;;;;;;;10.40;4.00;;;;;;;6.82;67.33;101643.78;105988;1257;60447;-64
2024/02/16 04:03:26;;;;;;;9.40;4.00;;;;;;;6.76;67.29;101649.61;105452;1251;63639;-64
2024/02/16 04:05:54;;;;;;;8.00;3.10;;;;;;;6.75;66.94;101651.77;105406;1253;60364;-64
2024/02/16 04:08:22;;;;;;;10.50;4.20;;;;;;;6.76;66.62;101658.17;105326;1254;63997;-60
2024/02/16 04:10:49;;;;;;;8.10;2.80;;;;;;;6.76;66.44;101657.98;105307;1254;60533;-65
2024/02/16 04:13:17;;;;;;;7.80;2.70;;;;;;;6.81;66.48;101661.60;105359;1251;60446;-62
2024/02/16 04:15:45;;;;;;;8.40;3.80;;;;;;;6.89;66.66;101658.83;105388;1257;64919;-63
2024/02/16 04:18:12;;;;;;;14.00;8.80;;;;;;;7.01;66.61;101662.52;106194;1257;60441;-62
2024/02/16 04:20:41;;;;;;;10.20;4.40;;;;;;;7.06;66.38;101666.79;105504;1257;62518;-64
2024/02/16 04:23:08;;;;;;;7.10;2.70;;;;;;;7.07;66.11;101669.91;105523;1257;60421;-61
2024/02/16 04:25:36;;;;;;;10.80;4.10;;;;;;;7.04;66.05;101671.77;106458;1256;60482;-61
2024/02/16 04:28:04;;;;;;;10.10;4.50;;;;;;;6.99;66.00;101671.64;105367;1251;65367;-61
2024/02/16 04:30:32;;;;;;;8.20;3.40;;;;;;;6.95;65.93;101670.63;105735;1251;61590;-62
2024/02/16 04:33:00;;;;;;;14.20;9.40;;;;;;;6.91;65.93;101675.50;105347;1253;62432;-63
2024/02/16 04:35:28;;;;;;;7.70;2.80;;;;;;;6.86;65.71;101680.04;105299;1253;60555;-63
2024/02/16 04:37:55;;;;;;;9.00;4.00;;;;;;;6.88;65.46;101681.04;105151;1251;60610;-64
2024/02/16 04:40:23;;;;;;;7.80;2.80;;;;;;;6.91;65.32;101677.44;105405;1251;63705;-65
2024/02/16 04:42:51;;;;;;;9.30;4.30;;;;;;;6.96;65.20;101679.82;105374;1257;62166;-60
2024/02/16 04:45:19;;;;;;;9.90;2.30;;;;;;;7.02;65.38;101679.00;105403;1251;62646;-56
2024/02/16 04:47:48;;;;;;;11.10;3.80;;;;;;;7.09;65.28;101684.13;105357;1257;60445;-59
2024/02/16 04:50:16;;;;;;;10.60;4.60;;;;;;;7.13;65.27;101682.89;105487;1257;60367;-59
2024/02/16 04:52:43;;;;;;;9.90;4.20;;;;;;;7.15;65.40;101681.77;105467;1254;64222;-59
2024/02/16 04:55:11;;;;;;;10.50;3.70;;;;;;;7.14;65.21;101682.17;105706;1257;61537;-60
2024/02/16 04:57:39;;;;;;;11.10;4.50;;;;;;;7.10;65.10;101685.66;105299;1251;63690;-66
2024/02/16 05:00:09;;;;;;;10.70;4.40;;;;;;;7.04;65.11;101685.90;105126;1253;318133;-60
2024/02/16 05:14:12;;;;;;;13.20;4.90;;;;;;;7.06;65.39;101692.84;102559;1285;604761;-61
2024/02/16 05:16:46;;;;;;;16.60;10.00;;;;;;;7.79;63.21;101702.92;104246;1267;140561;-58
2024/02/16 05:19:14;;;;;;;14.20;10.10;;;;;;;7.79;62.92;101706.05;105033;1271;59280;-65
2024/02/16 05:21:42;;;;;;;11.00;4.80;;;;;;;7.72;62.87;101705.35;104344;1268;62089;-59
2024/02/16 05:24:09;;;;;;;17.30;10.80;;;;;;;7.63;62.90;101708.02;104198;1271;60181;-63
2024/02/16 05:26:37;;;;;;;13.30;6.60;;;;;;;7.57;63.15;101709.02;104220;1267;63936;-61
2024/02/16 05:29:05;;;;;;;14.30;5.00;;;;;;;7.48;63.13;101711.86;104577;1268;59511;-63
2024/02/16 05:31:33;;;;;;;9.60;3.90;;;;;;;7.38;63.25;101713.38;104377;1267;59236;-61
2024/02/16 05:34:00;;;;;;;15.50;10.10;;;;;;;7.26;63.31;101718.42;104157;1270;63241;-59
2024/02/16 05:36:35;;;;;;;8.50;3.00;;;;;;;7.20;63.32;101717.64;104152;1268;60252;-59
2024/02/16 05:39:19;;;;;;;7.30;2.50;;;;;;;7.30;62.93;101720.03;108140;1267;62491;-59
2024/02/16 05:41:48;;;;;;;7.80;2.50;;;;;;;7.35;62.71;101721.89;108330;1266;57688;-58
2024/02/16 05:44:15;;;;;;;9.70;3.60;;;;;;;7.38;62.63;101724.36;105961;1270;59681;-57
2024/02/16 05:46:44;;;;;;;18.00;9.20;;;;;;;7.41;62.56;101726.13;104070;1269;64603;-57
2024/02/16 05:49:13;;;;;;;6.80;2.60;;;;;;;7.46;62.71;101726.63;105962;1268;60262;-58
2024/02/16 05:51:42;;;;;;;9.00;3.60;;;;;;;7.52;62.97;101727.39;105999;1267;63779;-58
2024/02/16 05:54:10;;;;;;;15.60;9.80;;;;;;;7.57;63.06;101728.19;104391;1271;59782;-66
2024/02/16 05:56:39;;;;;;;6.10;2.90;;;;;;;7.57;62.92;101726.12;103966;1267;59789;-62
2024/02/16 05:59:06;;;;;;;8.90;3.80;;;;;;;7.54;62.68;101733.41;104256;1267;64162;-61
2024/02/16 06:01:35;;;;;;;13.70;8.80;;;;;;;7.51;62.62;101733.90;105410;1267;62011;-55
2024/02/16 06:04:04;;;;;;;10.00;4.80;;;;;;;7.47;62.62;101733.38;104156;1268;63821;-60
2024/02/16 06:06:32;;;;;;;10.70;3.60;;;;;;;7.43;62.55;101734.98;104262;1266;59768;-62
2024/02/16 06:08:59;;;;;;;9.70;5.50;;;;;;;7.37;62.51;101740.46;104751;1266;59778;-62
2024/02/16 06:11:27;;;;;;;10.60;4.10;;;;;;;7.30;62.52;101737.47;104084;1266;62892;-60
2024/02/16 06:13:55;;;;;;;9.20;3.40;;;;;;;7.22;62.49;101740.25;104114;1275;60264;-60
2024/02/16 06:16:22;;;;;;;16.60;2.80;;;;;;;7.21;62.40;101739.95;104214;1266;62763;-60
2024/02/16 06:18:50;;;;;;;7.70;3.30;;;;;;;7.25;62.34;101742.73;105049;1268;60351;-60
2024/02/16 06:21:18;;;;;;;9.10;3.00;;;;;;;7.31;62.51;101746.17;104361;1269;59693;-55
2024/02/16 06:23:46;;;;;;;11.30;5.60;;;;;;;7.37;62.50;101747.48;104378;1269;62959;-64
2024/02/16 06:26:14;;;;;;;14.80;9.60;;;;;;;7.43;62.52;101747.17;104391;1266;61946;-62
2024/02/16 06:28:41;;;;;;;10.50;4.10;;;;;;;7.46;62.55;101742.52;104322;1266;62771;-59
2024/02/16 06:31:09;;;;;;;8.00;3.90;;;;;;;7.45;62.66;101738.70;104414;1267;59744;-60
2024/02/16 06:33:37;;;;;;;11.30;5.10;;;;;;;7.45;62.87;101739.06;104399;1266;59685;-58
2024/02/16 06:36:06;;;;;;;11.40;5.50;;;;;;;7.46;62.98;101736.27;104292;1271;64781;-61
2024/02/16 06:38:34;;;;;;;11.60;4.70;;;;;;;7.45;62.89;101739.07;104687;1267;60661;-60
2024/02/16 06:41:03;;;;;;;22.10;13.50;;;;;;;7.41;62.72;101739.43;104824;1267;62807;-60
2024/02/16 06:43:31;;;;;;;12.00;5.60;;;;;;;7.34;62.76;101736.24;105212;1264;59743;-60
2024/02/16 06:45:59;;;;;;;9.50;3.20;;;;;;;7.35;62.63;101737.92;104755;1259;59604;-60
2024/02/16 06:48:26;;;;;;;12.00;3.70;;;;;;;7.43;62.72;101741.44;104813;1260;63141;-58
2024/02/16 06:50:54;;;;;;;12.60;4.60;;;;;;;7.51;62.57;101743.34;104768;1264;60267;-57
2024/02/16 06:53:22;;;;;;;23.40;14.20;;;;;;;7.58;62.61;101746.69;105500;1262;62666;-61
2024/02/16 06:55:51;;;;;;;11.60;5.30;;;;;;;7.60;62.78;101743.95;104701;1263;59819;-61
2024/02/16 06:58:20;;;;;;;13.80;5.40;;;;;;;7.62;62.93;101740.38;107206;1258;58391;-60
2024/02/16 07:00:48;;;;;;;16.90;6.40;;;;;;;7.61;62.79;101742.02;104716;1260;62812;-61
2024/02/16 07:03:16;;;;;;;23.50;16.60;;;;;;;7.59;62.76;101748.20;106345;1266;60274;-59
2024/02/16 07:05:44;;;;;;;12.80;6.30;;;;;;;7.59;62.68;101750.48;105570;1262;63335;-62
2024/02/16 07:08:11;;;;;;;14.70;7.00;;;;;;;7.57;62.72;101749.16;104743;1264;59671;-59
2024/02/16 07:10:39;;;;;;;15.40;7.20;;;;;;;7.53;62.77;101742.88;104496;1259;59653;-57
2024/02/16 07:13:06;;;;;;;20.90;6.70;;;;;;;7.49;62.77;101741.48;104539;1259;62909;-62
2024/02/16 07:15:34;;;;;;;26.40;17.90;;;;;;;7.47;62.84;101736.56;104602;1259;61341;-59
2024/02/16 07:18:04;;;;;;;16.60;6.10;;;;;;;7.45;62.82;101739.42;104594;1261;65429;-56
2024/02/16 07:20:32;;;;;;;14.30;5.00;;;;;;;7.51;62.72;101745.95;105151;1259;60051;-60
2024/02/16 07:23:00;;;;;;;26.60;16.60;;;;;;;7.59;62.56;101748.19;104821;1263;59515;-60
2024/02/16 07:25:28;;;;;;;12.00;4.40;;;;;;;7.66;62.43;101749.66;105413;1259;62946;-60
2024/02/16 07:27:55;;;;;;;13.50;6.60;;;;;;;7.72;62.30;101752.70;104669;1264;60283;-60
2024/02/16 07:30:23;;;;;;;23.50;16.30;;;;;;;7.74;62.23;101752.95;105374;1259;63735;-59
2024/02/16 07:33:07;;;;;;;14.50;6.70;;;;;;;7.76;62.21;101760.86;104638;1262;59718;-60
2024/02/16 07:35:40;;;;;;;13.70;5.60;;;;;;;7.76;62.16;101761.39;104988;1263;59640;-62
2024/02/16 07:38:08;;;;;;;14.90;5.90;;;;;;;7.74;62.03;101770.23;104681;1264;66461;-66
2024/02/16 07:40:37;;;;;;;26.20;16.90;;;;;;;7.73;61.87;101775.69;104629;1264;60101;-63
2024/02/16 07:43:05;;;;;;;17.10;6.60;;;;;;;7.71;61.79;101781.56;104517;1259;62677;-63
2024/02/16 07:45:33;;;;;;;14.40;6.20;;;;;;;7.66;61.86;101785.27;105062;1259;59751;-63
2024/02/16 07:48:05;;;;;;;15.00;5.60;;;;;;;7.62;61.77;101783.86;104630;1264;59765;-61
2024/02/16 07:50:33;;;;;;;12.00;7.00;;;;;;;7.58;61.69;101782.31;105043;1259;62880;-62
2024/02/16 07:53:01;;;;;;;11.80;6.10;;;;;;;7.53;61.70;101783.40;104711;1264;70259;-62
2024/02/16 07:55:28;;;;;;;24.30;15.60;;;;;;;7.54;61.61;101785.08;104534;1259;62698;-60
2024/02/16 07:57:56;;;;;;;9.60;3.80;;;;;;;7.60;61.47;101791.80;106205;1259;59647;-61
2024/02/16 08:00:25;;;;;;;11.80;4.80;;;;;;;7.66;61.55;101792.77;104805;1265;59646;-61
2024/02/16 08:02:53;;;;;;;21.90;13.50;;;;;;;7.72;61.46;101795.47;106336;1264;64263;-61
2024/02/16 08:05:22;;;;;;;12.50;5.60;;;;;;;7.78;61.54;101794.14;104550;1259;61875;-62
2024/02/16 08:07:53;;;;;;;22.90;15.10;;;;;;;7.82;61.53;101793.09;105449;1265;63841;-60
2024/02/16 08:10:21;;;;;;;15.10;6.20;;;;;;;7.84;61.56;101791.12;105450;1261;59830;-61
2024/02/16 08:12:49;;;;;;;23.40;16.30;;;;;;;7.87;61.52;101792.54;105477;1263;59591;-61
2024/02/16 08:15:23;;;;;;;13.40;6.10;;;;;;;7.88;61.49;101793.52;104508;1259;62850;-62
2024/02/16 08:17:53;;;;;;;13.00;6.10;;;;;;;7.88;61.30;101794.08;108760;1259;61523;-61
2024/02/16 08:20:21;;;;;;;14.00;6.10;;;;;;;7.84;61.33;101794.41;108699;1258;62566;-61
2024/02/16 08:22:48;;;;;;;26.80;17.30;;;;;;;7.80;61.40;101794.09;107301;1262;58815;-61
2024/02/16 08:25:16;;;;;;;15.20;5.80;;;;;;;7.76;61.31;101797.39;104694;1262;59686;-60
2024/02/16 08:27:44;;;;;;;21.50;14.10;;;;;;;7.80;61.22;101801.58;104876;1259;63060;-61
2024/02/16 08:30:12;;;;;;;12.70;4.60;;;;;;;7.86;60.99;101802.38;104846;1265;60258;-62
2024/02/16 08:32:40;;;;;;;23.00;13.90;;;;;;;7.88;60.85;101800.33;104869;1259;73642;-61
2024/02/16 08:35:09;;;;;;;14.00;5.60;;;;;;;7.89;60.77;101803.79;104868;1259;62246;-61
2024/02/16 08:37:36;;;;;;;12.90;6.10;;;;;;;7.83;60.84;101807.04;105058;1264;60016;-63
2024/02/16 08:40:05;;;;;;;26.40;14.80;;;;;;;7.76;60.76;101810.81;104695;1259;63264;-62
2024/02/16 08:42:33;;;;;;;11.60;6.50;;;;;;;7.69;60.73;101808.21;105093;1259;72601;-60
2024/02/16 08:45:01;;;;;;;18.70;6.60;;;;;;;7.61;60.88;101806.60;108691;1260;66307;-61
2024/02/16 08:47:29;;;;;;;15.70;7.00;;;;;;;7.57;60.83;101804.53;106004;1260;59666;-59
2024/02/16 08:49:56;;;;;;;23.20;14.40;;;;;;;7.50;60.92;101802.03;105247;1264;59713;-60
2024/02/16 08:52:24;;;;;;;14.30;5.80;;;;;;;7.46;60.99;101800.30;105434;1262;66800;-61
2024/02/16 08:54:52;;;;;;;13.70;5.70;;;;;;;7.51;60.83;101804.25;105414;1259;61525;-62
2024/02/16 08:57:20;;;;;;;12.60;4.80;;;;;;;7.57;60.79;101807.33;104817;1259;63826;-61
2024/02/16 08:59:47;;;;;;;11.40;3.90;;;;;;;7.60;60.73;101807.36;104827;1259;60472;-62
2024/02/16 09:02:15;;;;;;;22.90;14.20;;;;;;;7.63;60.83;101811.05;104722;1259;62242;-62
2024/02/16 09:04:43;;;;;;;14.10;5.90;;;;;;;7.61;60.69;101806.58;104833;1259;64108;-61
2024/02/16 09:07:11;;;;;;;21.40;13.90;;;;;;;7.60;60.76;101804.21;104905;1265;60380;-60
2024/02/16 09:09:39;;;;;;;12.70;5.20;;;;;;;7.55;60.90;101805.83;105025;1262;63713;-61
2024/02/16 09:12:07;;;;;;;18.70;6.90;;;;;;;7.53;61.20;101804.70;104788;1264;59702;-60
2024/02/16 09:14:35;;;;;;;20.80;6.00;;;;;;;7.57;61.11;101806.45;105240;1262;59662;-60
2024/02/16 09:17:03;;;;;;;23.30;15.00;;;;;;;7.58;61.12;101800.48;105249;1265;75250;-60
2024/02/16 09:19:31;;;;;;;14.90;6.00;;;;;;;7.59;61.02;101800.42;105100;1259;61899;-61
2024/02/16 09:22:01;;;;;;;11.00;3.50;;;;;;;7.62;60.76;101800.98;105364;1259;63907;-61
2024/02/16 09:24:29;;;;;;;13.40;5.30;;;;;;;7.67;60.56;101797.27;105331;1262;60561;-60
2024/02/16 09:26:58;;;;;;;20.60;13.40;;;;;;;7.71;60.44;101799.55;105232;1264;60503;-61
2024/02/16 09:29:25;;;;;;;12.00;5.40;;;;;;;7.74;60.41;101798.36;105407;1263;65278;-61
2024/02/16 09:31:54;;;;;;;10.40;5.00;;;;;;;7.77;60.59;101799.27;105483;1263;61066;-62
2024/02/16 09:34:22;;;;;;;23.90;14.80;;;;;;;7.80;60.57;101804.69;104700;1265;62709;-61
2024/02/16 09:36:50;;;;;;;17.70;8.80;;;;;;;7.83;60.48;101803.20;104823;1259;60468;-55
2024/02/16 09:39:17;;;;;;;15.00;7.20;;;;;;;7.83;60.37;101801.45;104897;1259;60511;-61
2024/02/16 09:41:48;;;;;;;24.00;15.50;;;;;;;7.82;60.30;101803.24;104723;1259;65024;-60
2024/02/16 09:44:16;;;;;;;13.30;5.40;;;;;;;7.77;60.12;101805.02;104701;1260;60552;-60
2024/02/16 09:46:44;;;;;;;23.70;14.30;;;;;;;7.81;60.14;101805.39;104727;1263;62664;-61
2024/02/16 09:49:12;;;;;;;11.40;4.30;;;;;;;7.90;60.13;101802.52;104780;1262;62706;-61
2024/02/16 09:51:40;;;;;;;13.60;6.30;;;;;;;7.96;59.92;101795.94;104726;1258;61035;-60
2024/02/16 09:54:08;;;;;;;21.60;13.90;;;;;;;8.02;59.83;101793.06;104939;1259;63782;-60
2024/02/16 09:56:36;;;;;;;11.90;5.40;;;;;;;8.06;59.80;101790.61;105061;1264;60329;-60
2024/02/16 09:59:03;;;;;;;13.00;6.40;;;;;;;8.08;59.65;101791.70;104873;1261;64127;-60
2024/02/16 10:01:35;;;;;;;24.00;14.60;;;;;;;8.10;59.27;101792.66;104800;1260;62770;-60
2024/02/16 10:04:09;;;;;;;12.70;5.00;;;;;;;8.06;58.78;101789.74;104822;1259;60552;-61
2024/02/16 10:06:50;;;;;;;12.10;4.80;;;;;;;7.93;58.62;101790.84;104854;1260;66786;-58
2024/02/16 10:09:25;;;;;;;21.30;13.40;;;;;;;7.85;58.84;101793.33;104802;1259;62294;-56
2024/02/16 10:11:53;;;;;;;13.20;6.10;;;;;;;7.81;58.87;101796.95;105378;1260;63870;-55
2024/02/16 10:14:40;;;;;;;10.20;4.60;;;;;;;7.86;58.96;101799.20;105757;1259;60442;-55
2024/02/16 10:17:09;;;;;;;14.20;5.60;;;;;;;7.93;58.99;101803.75;104999;1259;60486;-58
2024/02/16 10:19:40;;;;;;;17.80;12.50;;;;;;;8.00;58.89;101800.48;104966;1263;67332;-59
2024/02/16 10:22:10;;;;;;;11.40;5.40;;;;;;;8.03;58.73;101797.93;105748;1259;64221;-60
2024/02/16 10:24:39;;;;;;;17.10;4.90;;;;;;;8.02;58.67;101800.21;104889;1259;64116;-59
2024/02/16 10:27:16;;;;;;;20.90;12.50;;;;;;;8.05;58.68;101804.82;104880;1259;62268;-60
2024/02/16 10:29:49;;;;;;;14.10;5.20;;;;;;;8.08;58.60;101805.70;105058;1259;60587;-60
2024/02/16 10:32:17;;;;;;;12.20;5.00;;;;;;;8.08;58.57;101808.32;104773;1264;75748;-60
2024/02/16 10:34:45;;;;;;;11.90;5.30;;;;;;;8.07;58.42;101806.11;104883;1258;72669;-61
2024/02/16 10:37:13;;;;;;;18.50;11.80;;;;;;;8.05;58.37;101813.21;104854;1260;63885;-58
2024/02/16 10:39:42;;;;;;;10.50;4.50;;;;;;;8.00;58.29;101816.57;104852;1259;60577;-60
2024/02/16 10:42:09;;;;;;;9.80;4.90;;;;;;;7.97;58.19;101818.45;104892;1262;59404;-60
2024/02/16 10:44:38;;;;;;;11.30;5.20;;;;;;;7.99;58.17;101816.41;104765;1266;65033;-59
2024/02/16 10:47:05;;;;;;;19.50;11.80;;;;;;;8.04;58.29;101813.58;104861;1259;71557;-59
2024/02/16 10:49:33;;;;;;;11.20;4.60;;;;;;;8.08;58.28;101811.13;104829;1265;64825;-59
2024/02/16 10:52:02;;;;;;;11.30;5.50;;;;;;;8.11;58.41;101810.27;104761;1262;60496;-59
2024/02/16 10:54:32;;;;;;;22.70;13.90;;;;;;;8.12;58.50;101807.64;105428;1264;60365;-60
2024/02/16 10:56:59;;;;;;;13.50;5.00;;;;;;;8.12;58.36;101808.47;104845;1262;63701;-60
2024/02/16 10:59:28;;;;;;;12.20;4.60;;;;;;;8.11;58.29;101809.43;104909;1259;61730;-61
2024/02/16 11:02:00;;;;;;;21.50;14.20;;;;;;;8.07;58.32;101810.27;106085;1259;63743;-60
2024/02/16 11:04:36;;;;;;;14.70;6.00;;;;;;;8.02;58.31;101811.57;105296;1259;60252;-59
2024/02/16 11:07:21;;;;;;;14.20;5.00;;;;;;;7.97;58.44;101809.33;104772;1259;61372;-61
2024/02/16 11:09:50;;;;;;;22.10;13.50;;;;;;;7.94;58.46;101805.14;104839;1266;65109;-59
2024/02/16 11:12:17;;;;;;;13.80;4.10;;;;;;;7.94;58.63;101799.18;105727;1259;62851;-60
2024/02/16 11:14:46;;;;;;;10.80;4.40;;;;;;;8.00;58.60;101796.98;104897;1265;64298;-61
2024/02/16 11:17:21;;;;;;;22.30;12.10;;;;;;;8.11;58.61;101794.74;105869;1264;60570;-58
2024/02/16 11:19:49;;;;;;;11.90;4.70;;;;;;;8.23;58.55;101795.55;104896;1259;60587;-59
2024/02/16 11:22:18;;;;;;;11.60;5.10;;;;;;;8.27;58.47;101793.44;104885;1264;65287;-59
2024/02/16 11:24:48;;;;;;;10.70;5.30;;;;;;;8.30;58.31;101792.27;104940;1259;61575;-59
2024/02/16 11:27:19;;;;;;;20.30;13.10;;;;;;;8.31;58.13;101792.17;105682;1264;65966;-59
2024/02/16 11:29:48;;;;;;;11.10;4.30;;;;;;;8.31;57.88;101793.25;104846;1259;60451;-55
2024/02/16 11:32:18;;;;;;;20.80;13.30;;;;;;;8.29;57.63;101796.13;104843;1259;60500;-59
2024/02/16 11:34:46;;;;;;;14.60;4.60;;;;;;;8.23;57.72;101796.80;104854;1259;76126;-59